Time;durP1;ratioP1;P1;durP2;ratioP2;P2;SDS_P1;SDS_P2;PMS_P1;PMS_P2;Temp;Humidity;BMP_temperature;BMP_pressure;BME280_temperature;BME280_humidity;BME280_pressure;Samples;Min_cycle;Max_cycle;Signal;HPM_P1;HPM_P2
2023/03/10 00:02:59;;;;;;;3.90;2.70;;;;;;;;;;10345774;28;20029;-75
2023/03/10 00:07:59;;;;;;;4.20;2.63;;;;;;;;;;10345885;28;20033;-75
2023/03/10 00:12:59;;;;;;;4.05;2.75;;;;;;;;;;10346246;28;20029;-76
2023/03/10 00:18:00;;;;;;;4.75;2.20;;;;;;;;;;10345773;28;20029;-75
2023/03/10 00:23:00;;;;;;;5.65;3.30;;;;;;;;;;10345495;28;20026;-74
2023/03/10 00:28:00;;;;;;;5.17;3.43;;;;;;;;;;10327532;28;20132;-75
2023/03/10 00:33:02;;;;;;;10.43;3.25;;;;;;;;;;10360635;28;20145;-74
2023/03/10 00:38:02;;;;;;;5.28;2.38;;;;;;;;;;10344235;28;20769;-74
2023/03/10 00:43:02;;;;;;;6.50;2.88;;;;;;;;;;10344718;28;20022;-74
2023/03/10 00:48:03;;;;;;;8.48;3.00;;;;;;;;;;10344534;28;20025;-74
2023/03/10 00:53:03;;;;;;;4.03;2.57;;;;;;;;;;10327237;28;20527;-74
2023/03/10 00:58:03;;;;;;;5.23;2.60;;;;;;;;;;10344102;28;20485;-74
2023/03/10 01:03:04;;;;;;;5.30;2.38;;;;;;;;;;10359893;28;20296;-74
2023/03/10 01:08:04;;;;;;;4.13;2.67;;;;;;;;;;10326757;28;20108;-74
2023/03/10 01:13:05;;;;;;;8.13;3.25;;;;;;;;;;10343794;28;20033;-74
2023/03/10 01:18:05;;;;;;;4.55;2.50;;;;;;;;;;10343734;28;20123;-74
2023/03/10 01:23:06;;;;;;;3.53;2.90;;;;;;;;;;10357692;28;20029;-75
2023/03/10 01:28:07;;;;;;;7.90;3.45;;;;;;;;;;10342861;28;20117;-74
2023/03/10 01:33:08;;;;;;;6.47;3.07;;;;;;;;;;10343370;28;20072;-74
2023/03/10 01:38:08;;;;;;;5.63;3.63;;;;;;;;;;10342522;28;20034;-74
2023/03/10 01:43:14;;;;;;;7.07;6.10;;;;;;;;;;10342627;28;20026;-77
2023/03/10 01:48:15;;;;;;;6.55;3.63;;;;;;;;;;10341643;28;20040;-75
2023/03/10 01:53:17;;;;;;;4.72;2.88;;;;;;;;;;10343660;28;20025;-76
2023/03/10 01:58:18;;;;;;;4.10;2.63;;;;;;;;;;10342767;28;20112;-76
2023/03/10 02:03:19;;;;;;;7.72;3.65;;;;;;;;;;10342171;28;20061;-76
2023/03/10 02:08:21;;;;;;;6.55;3.10;;;;;;;;;;10340965;28;20104;-76
2023/03/10 02:13:22;;;;;;;6.78;3.83;;;;;;;;;;10339644;28;20389;-75
2023/03/10 02:18:22;;;;;;;7.68;3.20;;;;;;;;;;10338353;28;20088;-75
2023/03/10 02:23:52;;;;;;;7.05;3.45;;;;;;;;;;10338420;28;20356;-76
2023/03/10 02:28:52;;;;;;;8.95;3.65;;;;;;;;;;10312058;28;20040;-75
2023/03/10 02:33:53;;;;;;;8.02;3.75;;;;;;;;;;10356046;28;20034;-77
2023/03/10 02:38:53;;;;;;;6.22;3.67;;;;;;;;;;10339862;28;20072;-75
2023/03/10 02:43:55;;;;;;;9.23;3.75;;;;;;;;;;10340585;28;20022;-75
2023/03/10 02:48:58;;;;;;;7.90;2.80;;;;;;;;;;10340132;28;20101;-75
2023/03/10 02:54:00;;;;;;;7.03;3.45;;;;;;;;;;10340333;28;20046;-75
2023/03/10 02:59:00;;;;;;;9.60;3.85;;;;;;;;;;10342399;28;20034;-75
2023/03/10 03:04:01;;;;;;;6.40;2.95;;;;;;;;;;10353561;28;20022;-74
2023/03/10 03:09:01;;;;;;;5.93;3.03;;;;;;;;;;10368766;28;20018;-75
2023/03/10 03:14:01;;;;;;;9.47;3.53;;;;;;;;;;10353792;28;20022;-75
2023/03/10 03:19:01;;;;;;;9.70;3.83;;;;;;;;;;10353007;28;20029;-75
2023/03/10 03:24:02;;;;;;;6.68;3.85;;;;;;;;;;10353226;28;20021;-76
2023/03/10 03:29:03;;;;;;;6.05;2.97;;;;;;;;;;10352136;28;20022;-77
2023/03/10 03:34:04;;;;;;;5.97;3.57;;;;;;;;;;10349754;28;20033;-76
2023/03/10 03:39:07;;;;;;;4.38;3.85;;;;;;;;;;10350215;28;20037;-76
2023/03/10 03:44:07;;;;;;;5.80;2.85;;;;;;;;;;10351927;28;20827;-76
2023/03/10 03:49:09;;;;;;;4.97;3.23;;;;;;;;;;10350789;28;20026;-76
2023/03/10 03:54:09;;;;;;;7.45;2.85;;;;;;;;;;10349592;28;20046;-75
2023/03/10 03:59:09;;;;;;;7.13;2.55;;;;;;;;;;10349321;28;20088;-75
2023/03/10 04:04:10;;;;;;;4.63;2.22;;;;;;;;;;10333472;28;20515;-75
2023/03/10 04:09:12;;;;;;;4.90;2.43;;;;;;;;;;10352243;28;20124;-75
2023/03/10 04:14:12;;;;;;;3.88;2.63;;;;;;;;;;10346525;28;20022;-76
2023/03/10 04:19:16;;;;;;;10.97;3.27;;;;;;;;;;10345993;28;20032;-75
2023/03/10 04:24:16;;;;;;;9.35;2.70;;;;;;;;;;10344753;28;20113;-76
2023/03/10 04:35:13;;;;;;;;;;;;;;;;;;;;;
2023/03/10 04:45:51;;;;;;;6.90;3.17;;;;;;;;;;10407327;28;20018;-93
2023/03/10 05:02:16;;;;;;;6.50;3.40;;;;;;;;;;10258535;29;20027;-92
2023/03/10 05:07:25;;;;;;;7.13;3.72;;;;;;;;;;10265046;29;20094;-95
2023/03/10 05:18:27;;;;;;;6.25;2.65;;;;;;;;;;10313470;28;20039;-95
2023/03/10 05:24:05;;;;;;;12.82;4.93;;;;;;;;;;10315502;28;20433;-95
2023/03/10 05:29:06;;;;;;;10.05;5.95;;;;;;;;;;10291275;28;20055;-96
2023/03/10 05:34:18;;;;;;;8.47;5.07;;;;;;;;;;10324213;28;20042;-96
2023/03/10 05:45:00;;;;;;;9.52;5.72;;;;;;;;;;10314234;28;20018;-95
2023/03/10 05:50:02;;;;;;;10.07;5.13;;;;;;;;;;10313413;28;20026;-94
2023/03/10 05:55:35;;;;;;;11.93;5.32;;;;;;;;;;10439260;28;20033;-95
2023/03/10 06:00:43;;;;;;;7.35;4.50;;;;;;;;;;10396400;28;20508;-96
2023/03/10 06:11:24;;;;;;;7.05;4.63;;;;;;;;;;10399214;28;20021;-95
2023/03/10 06:16:34;;;;;;;12.35;4.88;;;;;;;;;;10410290;28;20034;-94
2023/03/10 06:27:18;;;;;;;15.73;4.20;;;;;;;;;;10409814;28;20085;-95
2023/03/10 06:32:25;;;;;;;10.00;4.78;;;;;;;;;;10409475;28;20058;-95
2023/03/10 06:43:19;;;;;;;7.78;4.90;;;;;;;;;;10376503;28;20017;-91
2023/03/10 07:05:28;;;;;;;11.25;4.70;;;;;;;;;;10293539;28;20020;-93
2023/03/10 07:16:10;;;;;;;11.27;5.03;;;;;;;;;;10313352;23;20053;-75
2023/03/10 07:21:11;;;;;;;11.30;4.40;;;;;;;;;;10380508;28;20728;-74
2023/03/10 07:26:17;;;;;;;9.63;4.13;;;;;;;;;;10375752;28;20033;-74
2023/03/10 07:31:17;;;;;;;14.20;3.97;;;;;;;;;;10378717;28;20033;-75
2023/03/10 07:36:18;;;;;;;16.17;5.40;;;;;;;;;;10377122;28;20038;-74
2023/03/10 07:41:20;;;;;;;9.18;4.35;;;;;;;;;;10367919;28;20126;-82
2023/03/10 07:46:20;;;;;;;7.60;4.35;;;;;;;;;;10359925;28;20042;-75
2023/03/10 07:51:21;;;;;;;13.52;3.47;;;;;;;;;;10367949;28;20045;-73
2023/03/10 07:56:21;;;;;;;9.98;3.75;;;;;;;;;;10366461;28;20033;-71
2023/03/10 08:01:22;;;;;;;6.43;2.67;;;;;;;;;;10364990;28;20531;-71
2023/03/10 08:06:23;;;;;;;9.13;3.50;;;;;;;;;;10382779;28;20037;-71
2023/03/10 08:11:23;;;;;;;14.38;4.00;;;;;;;;;;10369404;28;20043;-73
2023/03/10 08:16:24;;;;;;;15.60;4.67;;;;;;;;;;10371029;28;20042;-72
2023/03/10 08:21:24;;;;;;;17.42;5.65;;;;;;;;;;10370417;28;20087;-73
2023/03/10 08:26:24;;;;;;;16.23;6.13;;;;;;;;;;10371573;28;20091;-73
2023/03/10 08:31:24;;;;;;;16.70;5.00;;;;;;;;;;10365970;28;20396;-72
2023/03/10 08:36:27;;;;;;;13.45;5.68;;;;;;;;;;10368935;28;20034;-74
2023/03/10 08:41:31;;;;;;;7.55;3.45;;;;;;;;;;10372309;28;20095;-71
2023/03/10 08:46:32;;;;;;;7.88;3.25;;;;;;;;;;10374321;28;20530;-70
2023/03/10 08:51:32;;;;;;;7.95;3.40;;;;;;;;;;10372093;28;20053;-70
2023/03/10 08:56:33;;;;;;;5.83;2.83;;;;;;;;;;10374454;28;20025;-71
2023/03/10 09:01:35;;;;;;;5.60;2.63;;;;;;;;;;10389749;28;20079;-70
2023/03/10 09:06:36;;;;;;;6.63;2.15;;;;;;;;;;10375806;28;20037;-71
2023/03/10 09:11:37;;;;;;;9.88;2.50;;;;;;;;;;10375697;28;20440;-72
2023/03/10 09:16:38;;;;;;;7.85;3.78;;;;;;;;;;10366920;28;20068;-71
2023/03/10 09:21:38;;;;;;;9.85;3.15;;;;;;;;;;10367745;28;20862;-70
2023/03/10 09:26:39;;;;;;;9.95;4.05;;;;;;;;;;10373000;28;20053;-70
2023/03/10 09:31:39;;;;;;;12.18;3.55;;;;;;;;;;10369391;28;20598;-71
2023/03/10 09:36:40;;;;;;;13.70;3.60;;;;;;;;;;10380084;28;20829;-70
2023/03/10 09:41:47;;;;;;;15.52;5.32;;;;;;;;;;10360228;28;20030;-70
2023/03/10 09:46:53;;;;;;;15.70;5.53;;;;;;;;;;10369105;28;20041;-70
2023/03/10 09:51:54;;;;;;;12.18;5.10;;;;;;;;;;10364854;28;20030;-70
2023/03/10 09:56:56;;;;;;;15.23;5.82;;;;;;;;;;10369804;28;20388;-70
2023/03/10 10:01:58;;;;;;;11.38;5.25;;;;;;;;;;10372534;28;20535;-70
2023/03/10 10:06:59;;;;;;;15.30;6.78;;;;;;;;;;10369887;28;20087;-70
2023/03/10 10:12:09;;;;;;;14.80;5.68;;;;;;;;;;10371531;28;20039;-72
2023/03/10 10:17:27;;;;;;;13.65;6.05;;;;;;;;;;10362384;28;20081;-70
2023/03/10 10:22:30;;;;;;;13.45;6.20;;;;;;;;;;10365330;28;20504;-71
2023/03/10 10:27:30;;;;;;;20.27;5.97;;;;;;;;;;10365098;28;20056;-70
2023/03/10 10:32:31;;;;;;;16.50;6.97;;;;;;;;;;10362741;28;20030;-70
2023/03/10 10:37:34;;;;;;;12.85;5.30;;;;;;;;;;10362395;28;20038;-70
2023/03/10 10:42:34;;;;;;;12.93;6.13;;;;;;;;;;10366752;28;20496;-71
2023/03/10 10:47:36;;;;;;;16.00;5.97;;;;;;;;;;10370337;28;20033;-70
2023/03/10 10:52:36;;;;;;;12.50;5.93;;;;;;;;;;10371067;28;20060;-71
2023/03/10 10:57:44;;;;;;;14.05;6.10;;;;;;;;;;10366472;28;20029;-71
2023/03/10 11:02:45;;;;;;;;;;;;;;;;;;10385522;28;20036;-71
2023/03/10 11:07:45;;;;;;;14.63;5.80;;;;;;;;;;10365877;28;20290;-71
2023/03/10 11:12:58;;;;;;;19.50;7.93;;;;;;;;;;10366369;28;20540;-71
2023/03/10 11:18:17;;;;;;;12.85;6.88;;;;;;;;;;10355340;28;20046;-70
2023/03/10 11:23:29;;;;;;;6.95;3.78;;;;;;;;;;10375447;28;20033;-71
2023/03/10 11:28:42;;;;;;;3.50;1.83;;;;;;;;;;10391161;28;20029;-71
2023/03/10 11:33:42;;;;;;;6.20;3.05;;;;;;;;;;10376202;28;20052;-71
2023/03/10 11:38:45;;;;;;;13.65;7.32;;;;;;;;;;10372397;28;20125;-70
2023/03/10 11:44:08;;;;;;;9.23;4.18;;;;;;;;;;10370710;28;20404;-70
2023/03/10 11:49:13;;;;;;;9.27;3.72;;;;;;;;;;10357065;28;20116;-70
2023/03/10 11:54:18;;;;;;;13.40;5.43;;;;;;;;;;10385587;28;20760;-70
2023/03/10 11:59:22;;;;;;;4.18;2.80;;;;;;;;;;10385880;28;20036;-70
2023/03/10 12:04:25;;;;;;;3.70;2.13;;;;;;;;;;10385811;28;20033;-70
2023/03/10 12:09:28;;;;;;;3.58;1.85;;;;;;;;;;10385384;28;20520;-71
2023/03/10 12:14:29;;;;;;;4.03;2.00;;;;;;;;;;10385247;28;20824;-71
2023/03/10 12:19:29;;;;;;;3.78;2.42;;;;;;;;;;10384136;28;20034;-71
2023/03/10 12:24:42;;;;;;;2.97;2.17;;;;;;;;;;10384255;28;20033;-72
2023/03/10 12:29:42;;;;;;;3.03;2.25;;;;;;;;;;10385409;28;20029;-71
2023/03/10 12:34:43;;;;;;;5.38;1.58;;;;;;;;;;10383841;28;20037;-71
2023/03/10 12:39:43;;;;;;;2.80;2.10;;;;;;;;;;10385633;28;20037;-71
2023/03/10 12:44:43;;;;;;;3.63;2.10;;;;;;;;;;10382358;28;20443;-71
2023/03/10 12:49:48;;;;;;;5.88;2.88;;;;;;;;;;10373297;28;20143;-71
2023/03/10 12:54:48;;;;;;;8.73;1.77;;;;;;;;;;10370387;28;20034;-72
2023/03/10 13:00:24;;;;;;;15.18;1.90;;;;;;;;;;10372466;28;20038;-71
2023/03/10 13:05:28;;;;;;;3.72;1.70;;;;;;;;;;10329905;28;20404;-72
2023/03/10 13:10:29;;;;;;;4.63;1.38;;;;;;;;;;10369301;28;20037;-72
2023/03/10 13:15:31;;;;;;;3.00;1.52;;;;;;;;;;10367479;28;20406;-72
2023/03/10 13:20:34;;;;;;;6.30;3.42;;;;;;;;;;10370432;28;20362;-72
2023/03/10 13:25:35;;;;;;;9.27;2.83;;;;;;;;;;10383435;28;20191;-72
2023/03/10 13:30:35;;;;;;;6.28;2.72;;;;;;;;;;10381820;28;20031;-72
2023/03/10 13:35:37;;;;;;;5.40;2.95;;;;;;;;;;10383589;28;20029;-73
2023/03/10 13:40:42;;;;;;;9.63;4.50;;;;;;;;;;10382626;28;20064;-72
2023/03/10 13:45:42;;;;;;;9.18;3.17;;;;;;;;;;10382402;28;20035;-72
2023/03/10 13:50:43;;;;;;;10.23;3.40;;;;;;;;;;10382929;28;20025;-72
2023/03/10 13:55:43;;;;;;;4.57;2.78;;;;;;;;;;10382220;28;20029;-72
2023/03/10 14:00:49;;;;;;;6.53;2.20;;;;;;;;;;10381963;28;20408;-72
2023/03/10 14:05:49;;;;;;;6.95;2.25;;;;;;;;;;10381726;28;20029;-71
2023/03/10 14:10:50;;;;;;;4.47;2.28;;;;;;;;;;10381379;28;20465;-71
2023/03/10 14:15:54;;;;;;;2.83;1.38;;;;;;;;;;10381492;28;20049;-72
2023/03/10 14:20:55;;;;;;;4.45;1.27;;;;;;;;;;10379914;28;20685;-71
2023/03/10 14:25:56;;;;;;;22.90;11.00;;;;;;;;;;10381038;28;20488;-71
2023/03/10 14:30:56;;;;;;;3.85;2.08;;;;;;;;;;10381111;28;20080;-71
2023/03/10 14:35:57;;;;;;;1.85;1.10;;;;;;;;;;10380082;28;20037;-71
2023/03/10 14:40:57;;;;;;;2.35;1.20;;;;;;;;;;10380024;28;20484;-71
2023/03/10 14:45:59;;;;;;;2.22;1.70;;;;;;;;;;10378980;28;20403;-72
2023/03/10 14:51:00;;;;;;;4.80;1.40;;;;;;;;;;10379622;28;20026;-71
2023/03/10 14:56:01;;;;;;;3.83;1.30;;;;;;;;;;10379654;28;20042;-72
2023/03/10 15:01:01;;;;;;;2.00;1.30;;;;;;;;;;10380352;28;20040;-72
2023/03/10 15:06:02;;;;;;;4.68;1.50;;;;;;;;;;10379448;28;20071;-72
2023/03/10 15:11:02;;;;;;;2.47;1.38;;;;;;;;;;10377911;28;20048;-71
2023/03/10 15:16:03;;;;;;;5.33;2.30;;;;;;;;;;10389367;28;20049;-71
2023/03/10 15:21:04;;;;;;;66.28;26.83;;;;;;;;;;10364289;28;20057;-71
2023/03/10 15:26:08;;;;;;;18.70;7.05;;;;;;;;;;10366391;28;20105;-70
2023/03/10 15:31:08;;;;;;;4.78;2.75;;;;;;;;;;10368223;28;20038;-72
2023/03/10 15:36:08;;;;;;;10.95;2.70;;;;;;;;;;10366640;28;20057;-70
2023/03/10 15:41:09;;;;;;;33.23;10.77;;;;;;;;;;10364059;28;20092;-72
2023/03/10 15:46:10;;;;;;;11.25;3.55;;;;;;;;;;10360114;28;20038;-80
2023/03/10 15:51:16;;;;;;;45.00;16.98;;;;;;;;;;10360225;28;20038;-71
2023/03/10 15:56:17;;;;;;;76.20;24.13;;;;;;;;;;10362847;28;20041;-70
2023/03/10 16:01:19;;;;;;;35.70;14.23;;;;;;;;;;10357517;28;20041;-70
2023/03/10 16:06:23;;;;;;;102.53;36.22;;;;;;;;;;10358263;28;20537;-71
2023/03/10 16:11:23;;;;;;;26.20;8.65;;;;;;;;;;10368355;28;20450;-70
2023/03/10 16:16:25;;;;;;;9.13;3.30;;;;;;;;;;10376964;28;20162;-71
2023/03/10 16:21:26;;;;;;;61.05;22.15;;;;;;;;;;10373644;28;20272;-69
2023/03/10 16:26:26;;;;;;;15.90;7.00;;;;;;;;;;10373207;28;20040;-69
2023/03/10 16:31:27;;;;;;;14.50;7.83;;;;;;;;;;10372494;28;20432;-70
2023/03/10 16:36:28;;;;;;;4.03;3.42;;;;;;;;;;10370857;28;20071;-69
2023/03/10 16:41:28;;;;;;;25.92;12.60;;;;;;;;;;10368500;28;20420;-70
2023/03/10 16:46:28;;;;;;;47.77;23.57;;;;;;;;;;10372130;28;20104;-70
2023/03/10 16:51:31;;;;;;;7.43;3.40;;;;;;;;;;10372624;28;20045;-71
2023/03/10 16:56:34;;;;;;;11.50;3.97;;;;;;;;;;10373135;28;20550;-70
2023/03/10 17:01:34;;;;;;;14.25;5.70;;;;;;;;;;10377364;28;20026;-70
2023/03/10 17:06:34;;;;;;;16.23;6.73;;;;;;;;;;10372830;28;20516;-70
2023/03/10 17:11:45;;;;;;;11.05;5.78;;;;;;;;;;10372012;28;20043;-70
2023/03/10 17:16:46;;;;;;;13.52;6.80;;;;;;;;;;10369703;28;20042;-71
2023/03/10 17:21:48;;;;;;;13.18;6.30;;;;;;;;;;10371984;28;20044;-77
2023/03/10 17:26:48;;;;;;;14.77;6.85;;;;;;;;;;10369121;28;20396;-81
2023/03/10 17:31:50;;;;;;;12.87;6.50;;;;;;;;;;10367738;28;20158;-74
2023/03/10 17:36:50;;;;;;;10.55;6.93;;;;;;;;;;10382925;28;20669;-80
2023/03/10 17:41:51;;;;;;;12.52;6.40;;;;;;;;;;10369432;28;20029;-70
2023/03/10 17:46:55;;;;;;;13.10;6.93;;;;;;;;;;10369181;28;20044;-69
2023/03/10 17:51:55;;;;;;;11.80;5.47;;;;;;;;;;10362618;28;20073;-70
2023/03/10 17:56:55;;;;;;;8.75;5.80;;;;;;;;;;10369987;28;20453;-73
2023/03/10 18:01:55;;;;;;;10.70;7.28;;;;;;;;;;10368541;28;20033;-74
2023/03/10 18:06:56;;;;;;;10.13;7.07;;;;;;;;;;10381904;28;20041;-78
2023/03/10 18:11:56;;;;;;;10.73;7.03;;;;;;;;;;10370429;28;20119;-69
2023/03/10 18:16:56;;;;;;;16.37;5.93;;;;;;;;;;10371878;28;20572;-80
2023/03/10 18:21:58;;;;;;;11.33;3.70;;;;;;;;;;10368192;28;20080;-75
2023/03/10 18:27:00;;;;;;;4.57;2.47;;;;;;;;;;10364836;28;20396;-74
2023/03/10 18:32:00;;;;;;;4.22;2.33;;;;;;;;;;10365980;28;20500;-77
2023/03/10 18:37:01;;;;;;;3.95;2.65;;;;;;;;;;10368100;28;20049;-74
2023/03/10 18:42:01;;;;;;;3.70;2.83;;;;;;;;;;10380809;28;20037;-73
2023/03/10 18:47:01;;;;;;;4.40;2.53;;;;;;;;;;10366145;28;20464;-74
2023/03/10 18:52:02;;;;;;;7.90;4.40;;;;;;;;;;10366928;28;20037;-71
2023/03/10 18:57:03;;;;;;;12.87;5.20;;;;;;;;;;10378308;28;20033;-75
2023/03/10 19:02:11;;;;;;;12.07;6.25;;;;;;;;;;10378619;28;20431;-72
2023/03/10 19:07:13;;;;;;;11.43;6.67;;;;;;;;;;10364782;28;20041;-71
2023/03/10 19:12:13;;;;;;;14.02;7.68;;;;;;;;;;10365947;28;20300;-70
2023/03/10 19:17:14;;;;;;;10.13;5.80;;;;;;;;;;10379594;28;20050;-71
2023/03/10 19:22:14;;;;;;;9.60;6.17;;;;;;;;;;10364173;28;20986;-70
2023/03/10 19:27:15;;;;;;;10.23;5.40;;;;;;;;;;10360007;28;20041;-70
2023/03/10 19:32:15;;;;;;;13.93;5.90;;;;;;;;;;10367055;28;20033;-70
2023/03/10 19:37:15;;;;;;;17.85;7.13;;;;;;;;;;10366512;28;20107;-71
2023/03/10 19:42:15;;;;;;;11.50;5.13;;;;;;;;;;10362027;28;20033;-71
2023/03/10 19:47:19;;;;;;;6.38;4.30;;;;;;;;;;10369270;28;20554;-70
2023/03/10 19:52:19;;;;;;;7.95;4.18;;;;;;;;;;10371875;28;20072;-71
2023/03/10 19:57:20;;;;;;;7.15;4.32;;;;;;;;;;10384806;28;20464;-71
2023/03/10 20:02:20;;;;;;;13.50;9.43;;;;;;;;;;10374294;28;20361;-71
2023/03/10 20:07:20;;;;;;;22.20;11.17;;;;;;;;;;10374633;28;20152;-71
2023/03/10 20:12:21;;;;;;;21.90;9.75;;;;;;;;;;10372349;28;20510;-74
2023/03/10 20:17:21;;;;;;;18.30;12.00;;;;;;;;;;10370414;28;20049;-71
2023/03/10 20:22:22;;;;;;;29.55;13.45;;;;;;;;;;10369829;28;20534;-76
2023/03/10 20:27:24;;;;;;;25.17;14.20;;;;;;;;;;10372982;28;20468;-78
2023/03/10 20:32:24;;;;;;;23.70;14.15;;;;;;;;;;10374576;28;20037;-74
2023/03/10 20:37:24;;;;;;;19.13;12.50;;;;;;;;;;10370326;28;20661;-70
2023/03/10 20:42:25;;;;;;;14.30;9.77;;;;;;;;;;10373914;28;20633;-69
2023/03/10 20:47:25;;;;;;;10.35;6.90;;;;;;;;;;10372465;28;20044;-75
2023/03/10 20:52:25;;;;;;;7.55;3.63;;;;;;;;;;10376379;28;20057;-71
2023/03/10 20:57:26;;;;;;;11.40;5.93;;;;;;;;;;10374367;28;20499;-71
2023/03/10 21:02:26;;;;;;;16.07;8.33;;;;;;;;;;10373329;28;20507;-71
2023/03/10 21:07:26;;;;;;;8.73;5.00;;;;;;;;;;10377560;28;20276;-71
2023/03/10 21:12:26;;;;;;;10.37;4.90;;;;;;;;;;10373169;28;20040;-76
2023/03/10 21:17:27;;;;;;;22.77;9.60;;;;;;;;;;10376574;28;20065;-80
2023/03/10 21:22:36;;;;;;;6.27;4.20;;;;;;;;;;10376150;28;20365;-78
2023/03/10 21:27:36;;;;;;;10.00;3.63;;;;;;;;;;10375601;28;20044;-78
2023/03/10 21:32:36;;;;;;;5.85;3.75;;;;;;;;;;10377899;28;20397;-77
2023/03/10 21:37:37;;;;;;;7.72;4.03;;;;;;;;;;10377737;28;20038;-84
2023/03/10 21:42:37;;;;;;;5.30;2.90;;;;;;;;;;10385763;28;20024;-88
2023/03/10 21:47:37;;;;;;;4.93;3.73;;;;;;;;;;10377423;28;20260;-76
2023/03/10 21:52:38;;;;;;;5.60;2.80;;;;;;;;;;10376613;28;20540;-77
2023/03/10 21:57:38;;;;;;;6.35;3.85;;;;;;;;;;10374036;28;20044;-78
2023/03/10 22:02:39;;;;;;;6.70;4.40;;;;;;;;;;10376132;28;20029;-77
2023/03/10 22:07:39;;;;;;;5.63;4.32;;;;;;;;;;10374478;28;20025;-78
2023/03/10 22:12:39;;;;;;;8.37;4.33;;;;;;;;;;10376264;28;20617;-78
2023/03/10 22:17:40;;;;;;;8.33;5.23;;;;;;;;;;10376112;28;20057;-77
2023/03/10 22:22:40;;;;;;;7.20;4.22;;;;;;;;;;10375848;28;20033;-77
2023/03/10 22:27:41;;;;;;;26.30;9.98;;;;;;;;;;10374757;28;20026;-69
2023/03/10 22:32:41;;;;;;;20.20;10.65;;;;;;;;;;10377838;28;20033;-70
2023/03/10 22:37:42;;;;;;;15.23;9.47;;;;;;;;;;10377795;28;20345;-69
2023/03/10 22:42:42;;;;;;;10.60;6.93;;;;;;;;;;10378712;28;20260;-70
2023/03/10 22:47:43;;;;;;;16.45;7.20;;;;;;;;;;10377385;28;20132;-69
2023/03/10 22:52:43;;;;;;;13.20;6.60;;;;;;;;;;10376719;28;20055;-71
2023/03/10 22:57:43;;;;;;;9.38;5.55;;;;;;;;;;10375133;28;20033;-70
2023/03/10 23:02:44;;;;;;;5.27;3.53;;;;;;;;;;10377348;28;20355;-70
2023/03/10 23:07:46;;;;;;;7.38;4.80;;;;;;;;;;10380102;28;20054;-70
2023/03/10 23:12:48;;;;;;;7.13;4.15;;;;;;;;;;10379638;28;20423;-70
2023/03/10 23:17:48;;;;;;;6.32;4.70;;;;;;;;;;10382710;28;20052;-70
2023/03/10 23:22:48;;;;;;;7.78;4.75;;;;;;;;;;10388128;28;20385;-70
2023/03/10 23:27:48;;;;;;;7.47;4.70;;;;;;;;;;10386643;28;20029;-70
2023/03/10 23:32:49;;;;;;;6.45;4.97;;;;;;;;;;10410985;28;21164;-70
2023/03/10 23:37:50;;;;;;;8.30;5.43;;;;;;;;;;10388469;28;20034;-70
2023/03/10 23:42:51;;;;;;;20.77;9.50;;;;;;;;;;10386849;28;20034;-70
2023/03/10 23:47:51;;;;;;;30.90;12.88;;;;;;;;;;10386806;28;20949;-70
2023/03/10 23:52:52;;;;;;;19.55;11.52;;;;;;;;;;10386184;28;20033;-69
2023/03/10 23:57:53;;;;;;;17.48;11.38;;;;;;;;;;10386862;28;20060;-70
